Orenco, Oregon
Current Conditions -  °F | °C
As of 5:53 AM on Friday 24 Oct 2014 (Local Time) from KHIO Reporting Station
Haze Haze  
Wind Chill: 48°   Ceiling: 500
Heat Index: 48°   Visibility: 1.2mi
Dew Point: 48°   Wind: 0mph
Humidity: 100%   Direction: NA
Pressure: 30.01"   Gusts: NA
Location:  45.6165°N, 122.954°W
Report Text: KHIO 241253Z 00000KT 1 1/4SM BR BKN005 09/09 A3001 RMK AO2 SLP161 T00890089
Loading
Personal Weather Stations






























Interactive Weather Map
Tropical Storm Tracking
New forecast layout! Learn more

10-Day Weather Forecast

Advertisements
Track Severe Weather on mobile